createdAt,value
2019-04-26T07:24:09.003Z,99.99
2019-04-26T07:25:09.008Z,99.99
2019-04-26T07:26:08.943Z,99.99
2019-04-26T07:27:09.001Z,99.99
2019-04-26T07:28:11.830Z,99.99
2019-04-26T07:29:09.319Z,99.99
2019-04-26T07:30:09.857Z,99.99
2019-04-26T07:31:08.818Z,99.99
2019-04-26T07:32:09.533Z,99.99
2019-04-26T07:33:08.792Z,99.99
2019-04-26T07:34:09.489Z,99.99
2019-04-26T07:35:08.800Z,99.99
2019-04-26T07:36:09.732Z,99.99
2019-04-26T07:37:08.874Z,99.99
2019-04-26T07:38:09.025Z,99.99
2019-04-26T07:39:17.707Z,99.99
2019-04-26T07:40:09.209Z,99.99
2019-04-26T07:41:09.310Z,99.99
2019-04-26T07:42:09.480Z,99.99
2019-04-26T07:43:08.581Z,99.99
2019-04-26T07:44:09.715Z,99.99
2019-04-26T07:45:08.548Z,99.99
2019-04-26T07:46:08.528Z,99.99
2019-04-26T07:47:08.603Z,99.99
2019-04-26T07:48:09.486Z,99.99
2019-04-26T07:49:08.492Z,99.99
2019-04-26T07:50:09.396Z,99.99
2019-04-26T07:51:09.422Z,99.99
2019-04-26T07:52:08.555Z,99.99
2019-04-26T07:53:09.281Z,99.99
2019-04-26T07:54:08.977Z,99.99
2019-04-26T07:55:08.695Z,99.99
2019-04-26T07:56:09.298Z,99.99
2019-04-26T07:57:08.718Z,99.99
2019-04-26T07:58:08.976Z,99.99
2019-04-26T07:59:08.811Z,99.99
2019-04-26T08:00:08.731Z,99.99
2019-04-26T08:01:08.250Z,99.99
2019-04-26T08:02:09.016Z,99.99
2019-04-26T08:03:08.723Z,99.99
2019-04-26T08:04:09.374Z,99.99
2019-04-26T08:05:09.406Z,99.99
2019-04-26T08:06:08.175Z,99.99
2019-04-26T08:07:08.257Z,99.99
2019-04-26T08:08:08.630Z,99.99
2019-04-26T08:09:08.108Z,99.99
2019-04-26T08:10:08.092Z,99.99
2019-04-26T08:11:08.665Z,99.99
2019-04-26T08:12:08.110Z,99.99
2019-04-26T08:13:08.107Z,99.99
2019-04-26T08:14:08.538Z,99.99
2019-04-26T08:15:08.991Z,99.99
2019-04-26T08:16:08.624Z,99.99
2019-04-26T08:17:08.220Z,99.99
2019-04-26T08:37:58.782Z,99.99
2019-04-26T08:38:58.745Z,99.99
2019-04-26T08:39:59.426Z,99.99
2019-04-26T08:41:00.481Z,99.99
2019-04-26T08:41:58.689Z,99.99
2019-04-26T08:42:58.762Z,99.99
2019-04-26T08:43:59.764Z,99.99
2019-04-26T08:44:58.627Z,99.99
2019-04-26T08:46:03.161Z,99.99
2019-04-26T08:46:58.590Z,99.99
2019-04-26T08:47:58.590Z,99.99
2019-04-26T08:49:02.117Z,99.99
2019-04-26T08:49:58.532Z,99.99
2019-04-26T08:50:58.515Z,99.99
2019-04-26T08:51:58.498Z,99.99
2019-04-26T08:52:58.477Z,99.99
2019-04-26T08:53:58.474Z,99.99
2019-04-26T08:54:58.441Z,99.99
2019-04-26T08:55:58.425Z,99.99
2019-04-26T08:56:58.404Z,99.99
2019-04-26T08:57:58.394Z,99.99
2019-04-26T08:58:58.384Z,99.99
2019-04-26T08:59:58.353Z,99.99
2019-04-26T09:00:58.331Z,99.99
2019-04-26T09:01:58.315Z,99.99
2019-04-26T09:02:58.331Z,99.99
2019-04-26T09:03:58.296Z,99.99
2019-04-26T09:04:58.261Z,99.99
2019-04-26T09:05:58.243Z,99.99
2019-04-26T09:06:58.225Z,99.99
2019-04-26T09:07:58.926Z,99.99
2019-04-26T09:08:58.211Z,99.99
2019-04-26T09:10:01.542Z,99.99
2019-04-26T09:10:58.162Z,99.99
2019-04-26T09:11:59.848Z,99.99
2019-04-26T09:12:58.126Z,99.99
2019-04-26T09:13:58.104Z,99.99
2019-04-26T09:14:58.100Z,99.99
2019-04-26T09:15:58.106Z,99.99
2019-04-26T09:16:58.052Z,99.99
2019-04-26T09:17:58.035Z,99.99
2019-04-26T09:18:59.756Z,99.99
2019-04-26T09:19:58.297Z,99.99
2019-04-26T09:20:57.984Z,99.99
2019-04-26T09:22:02.885Z,99.99
2019-04-26T09:23:03.885Z,99.99
2019-04-26T09:23:57.933Z,99.99
2019-04-26T09:24:59.450Z,99.99
2019-04-26T09:26:00.336Z,99.99
2019-04-26T09:26:57.877Z,99.99
2019-04-26T09:27:58.992Z,99.99
2019-04-26T09:28:57.845Z,99.99
2019-04-26T09:30:00.520Z,99.99
2019-04-26T09:30:57.817Z,99.99
2019-04-26T09:31:57.802Z,99.99
2019-04-26T09:32:58.365Z,99.99
2019-04-26T09:33:57.764Z,99.62
2019-04-26T09:34:57.771Z,99.99
2019-04-26T09:35:57.730Z,99.99
2019-04-26T09:36:57.712Z,99.99
2019-04-26T09:37:57.697Z,99.99
2019-04-26T09:38:57.679Z,99.99
2019-04-26T09:40:09.396Z,99.99
2019-04-26T09:41:00.460Z,99.99
2019-04-26T09:42:01.082Z,99.99
2019-04-26T09:42:59.402Z,99.99
2019-04-26T09:43:58.893Z,99.99
2019-04-26T09:44:57.582Z,99.28
2019-04-26T09:45:57.577Z,97.89
2019-04-26T09:46:57.547Z,98.75
2019-04-26T09:47:57.530Z,99.71
2019-04-26T09:48:57.515Z,99.99
2019-04-26T09:49:57.505Z,99.99
2019-04-26T09:50:57.545Z,99.99
2019-04-26T09:51:57.465Z,98.90
2019-04-26T09:52:58.277Z,99.80
2019-04-26T09:53:57.431Z,98.94
2019-04-26T09:54:57.417Z,98.85
2019-04-26T09:55:57.421Z,98.08
2019-04-26T09:56:57.392Z,98.90
2019-04-26T10:02:06.264Z,98.08
2019-04-26T10:03:09.396Z,98.75
2019-04-26T10:04:06.210Z,98.47
2019-04-26T10:05:08.073Z,99.90
2019-04-26T10:06:08.187Z,96.75
2019-04-26T10:07:06.159Z,97.23
2019-04-26T10:14:46.369Z,99.23
2019-04-26T10:15:43.658Z,99.99
2019-04-26T10:16:43.654Z,99.99
2019-04-26T10:17:46.437Z,97.71
2019-04-26T10:18:43.603Z,98.03
2019-04-26T10:19:43.583Z,99.99
2019-04-26T10:20:43.569Z,98.94
2019-04-26T10:25:38.059Z,96.27
2019-04-26T10:26:38.027Z,96.94
2019-04-26T10:27:40.673Z,98.42
2019-04-26T10:28:37.991Z,99.99
2019-04-26T10:29:37.971Z,96.42
2019-04-26T10:30:38.421Z,96.42
2019-04-26T10:31:37.936Z,94.55
2019-04-26T10:32:37.939Z,93.88
2019-04-26T10:33:37.932Z,93.21
2019-04-26T10:34:37.885Z,92.02
2019-04-26T10:35:37.866Z,91.83
2019-04-26T10:36:37.855Z,91.35
2019-04-26T10:37:39.542Z,89.76
2019-04-26T10:38:37.835Z,89.23
2019-04-26T10:39:37.801Z,88.37
2019-04-26T10:40:37.778Z,86.94
2019-04-26T10:41:37.762Z,87.99
2019-04-26T10:42:37.747Z,89.43
2019-04-26T10:43:37.742Z,87.90
2019-04-26T10:44:39.826Z,86.74
2019-04-26T10:45:37.695Z,85.69
2019-04-26T10:46:37.678Z,86.46
2019-04-26T10:47:38.435Z,85.79
2019-04-26T10:48:37.665Z,87.70
2019-04-26T10:49:37.635Z,88.95
2019-04-26T10:50:37.616Z,89.14
2019-04-26T10:51:38.681Z,88.95
2019-04-26T10:52:37.592Z,87.32
2019-04-26T10:53:37.605Z,85.36
2019-04-26T10:54:41.104Z,85.41
2019-04-26T10:55:37.542Z,86.17
2019-04-26T10:56:37.526Z,85.17
2019-04-26T10:57:37.507Z,86.90
2019-04-26T10:58:37.824Z,89.86
2019-04-26T10:59:39.743Z,89.00
2019-04-26T11:00:37.474Z,87.62
2019-04-26T11:01:37.446Z,88.71
2019-04-26T11:02:37.431Z,86.70
2019-04-26T11:03:37.418Z,88.13
2019-04-26T11:04:41.298Z,86.76
2019-04-26T11:05:37.385Z,85.94
2019-04-26T11:06:37.368Z,83.54
2019-04-26T11:07:37.353Z,82.40
2019-04-26T11:08:37.340Z,83.36
2019-04-26T11:09:37.343Z,83.30
2019-04-26T11:10:48.095Z,83.59
2019-04-26T11:11:37.301Z,85.17
2019-04-26T11:12:39.611Z,86.65
2019-04-26T11:13:37.262Z,83.59
2019-04-26T11:14:37.249Z,82.11
2019-04-26T11:15:37.250Z,82.78
2019-04-26T11:16:40.916Z,81.82
2019-04-26T11:17:37.201Z,85.08
2019-04-26T11:18:37.189Z,84.92
2019-04-26T11:19:37.174Z,85.60
2019-04-26T11:20:37.175Z,83.39
2019-04-26T11:21:37.143Z,84.64
2019-04-26T11:22:37.648Z,82.59
2019-04-26T11:23:37.117Z,82.59
2019-04-26T11:24:37.099Z,84.94
2019-04-26T11:25:37.105Z,85.22
2019-04-26T11:26:37.069Z,85.27
2019-04-26T11:27:40.119Z,85.08
2019-04-26T11:28:37.037Z,85.51
2019-04-26T11:29:37.021Z,83.40
2019-04-26T11:30:37.020Z,84.55
2019-04-26T11:31:37.011Z,85.51
2019-04-26T11:32:38.177Z,85.41
2019-04-26T11:33:44.756Z,85.22
2019-04-26T11:34:36.945Z,85.18
2019-04-26T11:35:37.054Z,85.22
2019-04-26T11:36:37.668Z,85.38
2019-04-26T11:37:36.906Z,86.37
2019-04-26T11:38:36.884Z,85.38
2019-04-26T11:39:40.590Z,86.04
2019-04-26T11:40:36.853Z,86.66
2019-04-26T11:41:37.629Z,84.98
2019-04-26T11:42:36.820Z,84.64
2019-04-26T11:43:36.804Z,82.34
2019-04-26T11:44:36.792Z,81.96
2019-04-26T11:45:36.780Z,80.43
2019-04-26T11:46:44.563Z,79.70
2019-04-26T11:47:37.155Z,81.23
2019-04-26T11:48:36.729Z,82.48
2019-04-26T11:49:37.406Z,78.55
2019-04-26T11:50:36.698Z,78.02
2019-04-26T11:51:36.699Z,80.03
2019-04-26T11:52:37.412Z,80.12
2019-04-26T11:53:40.497Z,79.97
2019-04-26T11:54:36.639Z,76.82
2019-04-26T11:55:36.623Z,78.07
2019-04-26T11:56:37.655Z,78.74
2019-04-26T11:57:36.593Z,78.88
2019-04-26T11:58:36.581Z,76.60
2019-04-26T11:59:36.562Z,79.75
2019-04-26T12:00:36.548Z,79.62
2019-04-26T12:01:36.845Z,81.38
2019-04-26T12:02:36.524Z,80.62
2019-04-26T12:03:36.507Z,80.33
2019-04-26T12:04:36.492Z,79.95
2019-04-26T12:05:36.475Z,79.08
2019-04-26T12:06:36.460Z,78.89
2019-04-26T12:07:36.458Z,78.89
2019-04-26T12:08:36.432Z,79.47
2019-04-26T12:09:36.416Z,79.28
2019-04-26T12:10:36.405Z,79.95
2019-04-26T12:11:48.759Z,81.48
2019-04-26T12:12:36.386Z,79.60
2019-04-26T12:13:36.373Z,77.97
2019-04-26T12:14:36.343Z,78.44
2019-04-26T12:15:39.003Z,75.46
2019-04-26T12:16:47.021Z,74.51
2019-04-26T12:17:36.836Z,72.59
2019-04-26T12:18:36.288Z,73.74
2019-04-26T12:19:36.267Z,74.02
2019-04-26T12:20:36.255Z,73.16
2019-04-26T12:21:36.287Z,71.69
2019-04-26T12:22:39.294Z,75.23
2019-04-26T12:23:43.783Z,75.20
2019-04-26T12:24:36.198Z,75.87
2019-04-26T12:25:48.090Z,78.13
2019-04-26T12:26:46.240Z,76.89
2019-04-26T12:27:43.921Z,78.42
2019-04-26T12:28:39.564Z,79.28
2019-04-26T12:29:36.123Z,78.32
2019-04-26T12:30:36.108Z,78.13
2019-04-26T12:31:36.127Z,78.13
2019-04-26T12:32:36.077Z,78.93
2019-04-26T12:33:46.401Z,78.36
2019-04-26T12:34:36.048Z,78.74
2019-04-26T12:35:36.033Z,79.99
2019-04-26T12:36:36.018Z,77.31
2019-04-26T12:37:36.022Z,78.45
2019-04-26T12:38:35.987Z,79.51
2019-04-26T12:39:36.595Z,78.32
2019-04-26T12:40:35.960Z,79.37
2019-04-26T12:41:40.430Z,78.70
2019-04-26T12:42:35.941Z,78.13
2019-04-26T12:43:35.914Z,78.55
2019-04-26T12:44:36.813Z,76.82
2019-04-26T12:45:35.883Z,75.77
2019-04-26T12:46:35.869Z,76.00
2019-04-26T12:47:38.635Z,76.62
2019-04-26T12:48:35.842Z,75.65
2019-04-26T12:49:35.826Z,76.07
2019-04-26T12:50:37.764Z,74.16
2019-04-26T12:51:38.182Z,72.49
2019-04-26T12:52:37.479Z,74.22
2019-04-26T12:53:35.783Z,74.12
2019-04-26T12:54:39.066Z,75.18
2019-04-26T12:55:35.739Z,74.18
2019-04-26T12:56:35.726Z,74.12
2019-04-26T12:57:36.525Z,73.35
2019-04-26T12:58:35.710Z,73.26
2019-04-26T12:59:43.955Z,72.49
2019-04-26T13:00:37.591Z,72.97
2019-04-26T13:01:35.653Z,72.20
2019-04-26T13:02:35.641Z,74.02
2019-04-26T13:03:35.639Z,72.91
2019-04-26T13:04:36.599Z,73.49
2019-04-26T13:05:35.604Z,71.03
2019-04-26T13:06:35.583Z,71.19
2019-04-26T13:07:35.568Z,70.42
2019-04-26T13:08:35.575Z,70.32
2019-04-26T13:09:35.541Z,70.03
2019-04-26T13:10:36.892Z,70.03
2019-04-26T13:11:35.512Z,70.92
2019-04-26T13:12:35.500Z,72.43
2019-04-26T13:13:35.487Z,71.37
2019-04-26T13:14:38.725Z,69.87
2019-04-26T13:15:35.462Z,68.70
2019-04-26T13:16:35.449Z,69.40
2019-04-26T13:17:36.108Z,66.20
2019-04-26T13:18:35.423Z,65.78
2019-04-26T13:19:35.442Z,67.51
2019-04-26T13:20:35.460Z,67.38
2019-04-26T13:21:37.256Z,68.73
2019-04-26T13:22:45.419Z,68.82
2019-04-26T13:23:35.367Z,69.84
2019-04-26T13:24:35.613Z,71.25
2019-04-26T13:25:40.536Z,70.86
2019-04-26T13:26:36.432Z,70.32
2019-04-26T13:27:35.301Z,69.56
2019-04-26T13:28:35.286Z,69.49
2019-04-26T13:29:35.273Z,68.50
2019-04-26T13:30:35.277Z,68.34
2019-04-26T13:31:35.260Z,70.87
2019-04-26T13:32:35.233Z,69.27
2019-04-26T13:33:35.219Z,67.13
2019-04-26T13:34:37.280Z,64.63
2019-04-26T13:35:35.196Z,64.22
2019-04-26T13:36:35.195Z,65.91
2019-04-26T13:37:35.700Z,64.12
2019-04-26T13:38:35.155Z,63.25
2019-04-26T13:39:35.143Z,62.55
2019-04-26T13:40:35.131Z,62.07
2019-04-26T13:41:38.600Z,62.00
2019-04-26T13:42:35.105Z,61.94
2019-04-26T13:43:35.094Z,63.86
2019-04-26T13:44:35.693Z,65.17
2019-04-26T13:45:35.067Z,65.69
2019-04-26T13:46:35.067Z,66.13
2019-04-26T13:47:35.048Z,65.56
2019-04-26T13:48:35.032Z,65.88
2019-04-26T13:49:35.910Z,64.47
2019-04-26T13:50:35.894Z,61.11
2019-04-26T13:51:35.006Z,60.05
2019-04-26T13:52:34.983Z,60.78
2019-04-26T13:53:34.978Z,62.26
2019-04-26T13:54:35.859Z,62.07
2019-04-26T13:55:35.877Z,63.60
2019-04-26T13:56:36.001Z,63.15
2019-04-26T13:57:35.896Z,59.44
2019-04-26T13:58:35.860Z,59.34
2019-04-26T13:59:34.942Z,58.09
2019-04-26T14:00:35.882Z,58.09
2019-04-26T14:01:34.925Z,58.64
2019-04-26T14:02:34.900Z,58.83
2019-04-26T14:03:35.422Z,60.27
2019-04-26T14:04:37.176Z,59.19
2019-04-26T14:05:34.836Z,60.75
2019-04-26T14:06:34.893Z,62.01
2019-04-26T14:07:34.809Z,62.04
2019-04-26T14:08:34.802Z,61.65
2019-04-26T14:09:34.794Z,62.61
2019-04-26T14:10:34.785Z,62.23
2019-04-26T14:11:34.762Z,63.19
2019-04-26T14:12:34.772Z,62.52
2019-04-26T14:13:34.735Z,63.28
2019-04-26T14:14:35.285Z,64.43
2019-04-26T14:15:34.716Z,62.71
2019-04-26T14:16:34.702Z,62.61
2019-04-26T14:17:34.712Z,62.42
2019-04-26T14:18:38.856Z,62.19
2019-04-26T14:19:34.663Z,62.13
2019-04-26T14:20:34.651Z,62.42
2019-04-26T14:21:34.926Z,62.81
2019-04-26T14:22:37.011Z,61.30
2019-04-26T14:23:34.614Z,62.10
2019-04-26T14:24:34.602Z,61.58
2019-04-26T14:25:34.592Z,60.78
2019-04-26T14:26:35.368Z,60.05
2019-04-26T14:27:34.585Z,59.63
2019-04-26T14:28:34.560Z,59.56
2019-04-26T14:29:34.543Z,59.31
2019-04-26T14:30:37.381Z,60.17
2019-04-26T14:31:34.521Z,61.49
2019-04-26T14:32:34.509Z,62.64
2019-04-26T14:33:34.509Z,61.58
2019-04-26T14:34:36.181Z,62.10
2019-04-26T14:35:34.473Z,59.50
2019-04-26T14:36:34.462Z,59.50
2019-04-26T14:37:34.449Z,60.82
2019-04-26T14:38:39.541Z,61.55
2019-04-26T14:39:49.235Z,60.11
2019-04-26T14:40:34.491Z,57.99
2019-04-26T14:41:34.483Z,59.27
2019-04-26T14:42:41.999Z,57.51
2019-04-26T14:43:41.073Z,57.99
2019-04-26T14:44:34.371Z,58.89
2019-04-26T14:45:36.424Z,57.67
2019-04-26T14:46:47.851Z,57.37
2019-04-26T14:47:46.447Z,56.65
2019-04-26T14:48:36.273Z,57.22
2019-04-26T14:49:39.643Z,56.80
2019-04-26T14:50:34.308Z,56.70
2019-04-26T14:51:34.302Z,56.00
2019-04-26T14:52:34.287Z,58.32
2019-04-26T14:53:36.439Z,59.44
2019-04-26T14:54:34.286Z,60.75
2019-04-26T14:55:34.259Z,62.45
2019-04-26T14:56:34.252Z,62.62
2019-04-26T14:57:34.236Z,64.25
2019-04-26T14:58:34.225Z,64.43
2019-04-26T14:59:34.229Z,63.83
2019-04-26T15:00:34.202Z,61.14
2019-04-26T15:01:35.301Z,60.43
2019-04-26T15:02:34.183Z,57.60
2019-04-26T15:03:34.167Z,56.58
2019-04-26T15:04:34.194Z,54.44
2019-04-26T15:05:34.145Z,53.55
2019-04-26T15:06:34.138Z,54.71
2019-04-26T15:07:35.065Z,55.98
2019-04-26T15:08:34.325Z,58.70
2019-04-26T15:09:36.386Z,55.87
2019-04-26T15:10:43.764Z,53.99
2019-04-26T15:11:36.083Z,52.42
2019-04-26T15:12:45.909Z,54.71
2019-04-26T15:13:40.252Z,55.78
2019-04-26T15:14:34.096Z,55.88
2019-04-26T15:15:34.665Z,55.88
2019-04-26T15:16:34.058Z,57.09
2019-04-26T15:17:34.035Z,55.36
2019-04-26T15:18:37.062Z,54.94
2019-04-26T15:19:35.229Z,54.11
2019-04-26T15:20:34.052Z,53.25
2019-04-26T15:21:34.416Z,54.00
2019-04-26T15:22:33.984Z,57.37
2019-04-26T15:23:33.987Z,57.03
2019-04-26T15:24:38.234Z,58.28
2019-04-26T15:25:36.634Z,56.99
2019-04-26T15:26:33.963Z,55.99
2019-04-26T15:27:36.232Z,55.81
2019-04-26T15:28:33.932Z,58.06
2019-04-26T15:29:34.536Z,59.66
2019-04-26T15:30:41.768Z,61.65
2019-04-26T15:31:33.918Z,62.19
2019-04-26T15:32:35.234Z,62.74
2019-04-26T15:33:35.891Z,63.38
2019-04-26T15:34:33.874Z,63.06
2019-04-26T15:35:35.771Z,61.58
2019-04-26T15:36:33.871Z,60.14
2019-04-26T15:37:33.846Z,59.66
2019-04-26T15:38:41.126Z,59.47
2019-04-26T15:39:33.825Z,61.20
2019-04-26T15:40:35.161Z,63.19
2019-04-26T15:41:33.841Z,63.76
2019-04-26T15:42:33.813Z,62.19
2019-04-26T15:43:33.781Z,61.30
2019-04-26T15:44:33.771Z,62.51
2019-04-26T15:45:38.654Z,58.08
2019-04-26T15:46:33.752Z,56.88
2019-04-26T15:47:34.408Z,54.46
2019-04-26T15:48:33.729Z,53.03
2019-04-26T15:49:36.543Z,51.06
2019-04-26T15:50:33.708Z,49.55
2019-04-26T15:51:33.699Z,50.74
2019-04-26T15:52:34.010Z,50.48
2019-04-26T15:53:33.681Z,49.99
2019-04-26T15:54:33.672Z,49.12
2019-04-26T15:55:39.650Z,50.40
2019-04-26T15:56:33.655Z,50.78
2019-04-26T15:57:34.696Z,52.95
2019-04-26T15:58:33.640Z,54.24
2019-04-26T15:59:33.631Z,56.33
2019-04-26T16:00:40.474Z,57.03
2019-04-26T16:01:33.630Z,57.02
2019-04-26T16:02:33.620Z,55.34
2019-04-26T16:03:36.731Z,52.86
2019-04-26T16:04:33.592Z,51.65
2019-04-26T16:05:33.582Z,52.36
2019-04-26T16:06:37.326Z,53.34
2019-04-26T16:07:34.534Z,54.35
2019-04-26T16:08:42.422Z,53.84
2019-04-26T16:09:33.551Z,53.63
2019-04-26T16:10:36.804Z,52.98
2019-04-26T16:11:33.542Z,53.11
2019-04-26T16:12:35.205Z,52.37
2019-04-26T16:13:33.635Z,51.05
2019-04-26T16:14:36.633Z,48.64
2019-04-26T16:15:33.784Z,50.45
2019-04-26T16:16:34.668Z,51.94
2019-04-26T16:17:36.212Z,52.91
2019-04-26T16:18:33.615Z,52.95
2019-04-26T16:19:33.610Z,53.88
2019-04-26T16:20:38.098Z,53.14
2019-04-26T16:21:33.541Z,54.87
2019-04-26T16:22:34.411Z,55.43
2019-04-26T16:23:41.200Z,55.62
2019-04-26T16:24:40.912Z,55.74
2019-04-26T16:25:34.468Z,56.03
2019-04-26T16:26:33.442Z,55.98
2019-04-26T16:27:34.564Z,57.84
2019-04-26T16:28:33.425Z,58.77
2019-04-26T16:29:33.428Z,60.21
2019-04-26T16:30:37.424Z,60.25
2019-04-26T16:31:34.273Z,62.45
2019-04-26T16:32:34.593Z,62.65
2019-04-26T16:33:33.794Z,62.65
2019-04-26T16:34:33.374Z,62.74
2019-04-26T16:35:33.351Z,63.89
2019-04-26T16:36:36.487Z,63.03
2019-04-26T16:37:35.190Z,62.26
2019-04-26T16:38:33.330Z,62.87
2019-04-26T16:39:39.114Z,63.73
2019-04-26T16:40:33.301Z,62.01
2019-04-26T16:41:37.749Z,61.97
2019-04-26T16:42:33.282Z,61.30
2019-04-26T16:43:40.020Z,61.91
2019-04-26T16:44:33.562Z,60.30
2019-04-26T16:45:37.174Z,59.56
2019-04-26T16:46:33.424Z,59.69
2019-04-26T16:47:35.422Z,58.82
2019-04-26T16:48:33.218Z,56.99
2019-04-26T16:49:41.812Z,56.15
2019-04-26T16:50:37.219Z,56.51
2019-04-26T16:51:34.017Z,57.22
2019-04-26T16:52:33.691Z,57.77
2019-04-26T16:53:45.863Z,58.76
2019-04-26T16:54:34.312Z,58.64
2019-04-26T16:56:35.604Z,58.99
2019-04-26T16:57:33.892Z,57.00
2019-04-26T16:58:38.161Z,57.20
2019-04-26T16:59:33.105Z,57.68
2019-04-26T17:00:33.601Z,58.06
2019-04-26T17:00:50.202Z,57.70
2019-04-26T17:01:33.496Z,57.90
2019-04-26T17:02:36.468Z,58.25
2019-04-26T17:03:38.043Z,59.50
2019-04-26T17:04:36.208Z,61.68
2019-04-26T17:05:47.172Z,62.26
2019-04-26T17:06:33.046Z,62.23
2019-04-26T17:07:36.889Z,62.01
2019-04-26T17:08:33.013Z,62.01
2019-04-26T17:09:54.855Z,62.26
2019-04-26T17:10:32.989Z,65.11
2019-04-26T17:11:35.022Z,65.97
2019-04-26T17:12:33.177Z,67.38
2019-04-26T17:13:34.972Z,68.52
2019-04-26T17:14:34.131Z,69.48
2019-04-26T17:15:34.590Z,68.33
2019-04-26T17:16:36.920Z,68.81
2019-04-26T17:17:33.198Z,68.33
2019-04-26T17:18:32.889Z,68.91
2019-04-26T17:19:35.845Z,68.66
2019-04-26T17:20:33.961Z,68.27
2019-04-26T17:21:34.737Z,68.75
2019-04-26T17:22:42.604Z,69.04
2019-04-26T17:23:33.385Z,68.37
2019-04-26T17:24:32.812Z,68.08
2019-04-26T17:25:32.796Z,68.27
2019-04-26T17:26:35.501Z,67.60
2019-04-26T17:27:33.094Z,67.22
2019-04-26T17:28:32.758Z,67.60
2019-04-26T17:29:33.459Z,66.83
2019-04-26T17:30:40.769Z,66.74
2019-04-26T17:31:33.639Z,67.02
2019-04-26T17:32:34.972Z,66.74
2019-04-26T17:33:32.753Z,68.27
2019-04-26T17:34:33.645Z,68.56
2019-04-26T17:35:32.846Z,68.75
2019-04-26T17:36:34.452Z,68.52
2019-04-26T17:37:32.634Z,68.05
2019-04-26T17:38:35.158Z,68.43
2019-04-26T17:39:32.602Z,70.44
2019-04-26T17:40:36.461Z,70.25
2019-04-26T17:41:33.308Z,70.64
2019-04-26T17:42:36.464Z,70.83
2019-04-26T17:43:32.567Z,68.33
2019-04-26T17:44:34.065Z,69.10
2019-04-26T17:45:32.522Z,70.06
2019-04-26T17:46:32.754Z,69.87
2019-04-26T17:47:36.375Z,69.87
2019-04-26T17:48:33.699Z,70.92
2019-04-26T17:49:34.450Z,69.96
2019-04-26T17:50:35.318Z,70.44
2019-04-26T17:51:41.539Z,71.31
2019-04-26T17:52:36.149Z,71.59
2019-04-26T17:53:33.723Z,71.69
2019-04-26T17:54:45.980Z,71.94
2019-04-26T17:55:33.677Z,72.80
2019-04-26T17:56:34.854Z,73.95
2019-04-26T17:57:36.735Z,74.05
2019-04-26T17:58:34.390Z,74.24
2019-04-26T17:59:35.856Z,75.20
2019-04-26T18:00:45.356Z,76.06
2019-04-26T18:01:44.382Z,75.29
2019-04-26T18:02:42.174Z,75.58
2019-04-26T18:03:32.634Z,75.58
2019-04-26T18:04:36.871Z,75.48
2019-04-26T18:05:45.095Z,76.06
2019-04-26T18:06:32.201Z,76.73
2019-04-26T18:07:41.403Z,77.02
2019-04-26T18:08:40.624Z,77.21
2019-04-26T18:09:41.403Z,78.64
2019-04-26T18:10:35.487Z,77.78
2019-04-26T18:11:32.984Z,76.82
2019-04-26T18:12:38.429Z,79.32
2019-04-26T18:13:32.205Z,79.13
2019-04-26T18:14:32.197Z,79.51
2019-04-26T18:15:33.324Z,78.84
2019-04-26T18:16:32.890Z,77.97
2019-04-26T18:17:32.982Z,77.50
2019-04-26T18:18:32.017Z,77.88
2019-04-26T18:19:33.477Z,80.37
2019-04-26T18:20:33.522Z,81.20
2019-04-26T18:21:33.500Z,82.43
2019-04-26T18:22:34.556Z,81.38
2019-04-26T18:23:33.802Z,81.20
2019-04-26T18:24:34.863Z,81.67
2019-04-26T18:25:31.906Z,83.30
2019-04-26T18:26:32.782Z,82.40
2019-04-26T18:27:35.786Z,83.54
2019-04-26T18:28:31.858Z,83.98
2019-04-26T18:29:33.587Z,84.84
2019-04-26T18:30:32.973Z,86.08
2019-04-26T18:31:33.606Z,85.89
2019-04-26T18:32:33.963Z,86.80
2019-04-26T18:33:32.878Z,86.90
2019-04-26T18:34:40.530Z,88.24
2019-04-26T18:35:31.744Z,89.20
2019-04-26T18:36:33.075Z,90.01
2019-04-26T18:37:36.433Z,91.54
2019-04-26T18:38:31.701Z,92.02
2019-04-26T18:39:33.063Z,92.40
2019-04-26T18:40:35.404Z,90.59
2019-04-26T18:41:31.651Z,93.55
2019-04-26T18:42:33.334Z,94.51
2019-04-26T18:43:32.787Z,94.46
2019-04-26T18:44:36.892Z,94.46
2019-04-26T18:45:31.583Z,94.36
2019-04-26T18:46:31.931Z,95.03
2019-04-26T18:47:31.568Z,94.84
2019-04-26T18:48:35.250Z,93.88
2019-04-26T18:49:32.955Z,95.98
2019-04-26T18:50:32.783Z,96.84
2019-04-26T18:51:31.480Z,95.32
2019-04-26T18:52:32.974Z,96.66
2019-04-26T18:53:36.605Z,96.94
2019-04-26T18:54:32.872Z,97.89
2019-04-26T18:55:34.313Z,98.80
2019-04-26T18:56:36.997Z,99.66
2019-04-26T18:57:31.383Z,99.57
2019-04-26T18:58:34.734Z,99.99
2019-04-26T18:59:31.345Z,99.99
2019-04-26T19:00:31.329Z,99.99
2019-04-26T19:01:34.725Z,99.99
2019-04-26T19:02:31.292Z,99.99
2019-04-26T19:03:31.292Z,99.99
2019-04-26T19:04:31.257Z,99.99
2019-04-26T19:05:31.241Z,99.99
2019-04-26T19:06:33.555Z,99.99
2019-04-26T19:07:32.626Z,99.99
2019-04-26T19:08:43.867Z,99.99
2019-04-26T19:09:33.910Z,99.99
2019-04-26T19:10:34.103Z,99.99
2019-04-26T19:11:32.390Z,99.99
2019-04-26T19:12:32.520Z,99.99
2019-04-26T19:13:36.558Z,99.99
2019-04-26T19:14:31.745Z,99.99
2019-04-26T19:15:33.630Z,99.99
2019-04-26T19:16:31.941Z,99.99
2019-04-26T19:17:31.789Z,99.99
2019-04-26T19:18:33.684Z,99.99
2019-04-26T19:19:31.479Z,99.99
2019-04-26T19:20:32.316Z,99.99
2019-04-26T19:21:32.324Z,99.99
2019-04-26T19:22:32.216Z,99.99
2019-04-26T19:23:32.062Z,99.99
2019-04-26T19:24:30.908Z,99.99
2019-04-26T19:25:34.472Z,99.99
2019-04-26T19:26:34.887Z,99.99
2019-04-26T19:27:30.849Z,99.99
2019-04-26T19:28:30.834Z,99.99
2019-04-26T19:29:34.312Z,99.99
2019-04-26T19:30:30.937Z,99.99
2019-04-26T19:31:30.783Z,99.99
2019-04-26T19:32:35.196Z,99.99
2019-04-26T19:33:31.380Z,99.99
2019-04-26T19:34:31.355Z,99.99
2019-04-26T19:35:30.715Z,99.99
2019-04-26T19:36:30.703Z,99.99
2019-04-26T19:37:36.756Z,99.99
2019-04-26T19:38:30.652Z,99.99
2019-04-26T19:39:33.746Z,99.99
2019-04-26T19:40:30.614Z,99.99
2019-04-26T19:41:31.507Z,99.99
2019-04-26T19:42:30.962Z,99.99
2019-04-26T19:43:34.672Z,99.99
2019-04-26T19:44:31.612Z,99.99
2019-04-26T19:45:31.302Z,99.99
2019-04-26T19:46:31.592Z,99.99
2019-04-26T19:47:30.486Z,99.99
2019-04-26T19:48:31.481Z,99.99
2019-04-26T19:49:33.264Z,99.99
2019-04-26T19:50:30.434Z,99.99
2019-04-26T19:51:30.462Z,99.99
2019-04-26T19:52:33.767Z,99.99
2019-04-26T19:53:30.377Z,99.99
2019-04-26T19:54:35.596Z,99.99
2019-04-26T19:55:31.762Z,99.99
2019-04-26T19:56:31.479Z,99.99
2019-04-26T19:57:33.397Z,99.99
2019-04-26T19:58:31.976Z,99.99
2019-04-26T19:59:33.048Z,99.99
2019-04-26T20:00:32.027Z,99.99
2019-04-26T20:01:30.231Z,99.99
2019-04-26T20:02:35.846Z,99.99
2019-04-26T20:03:30.192Z,99.99
2019-04-26T20:04:33.781Z,99.99
2019-04-26T20:05:31.909Z,99.99
2019-04-26T20:06:30.135Z,99.99
2019-04-26T20:07:30.117Z,99.99
2019-04-26T20:08:30.113Z,99.99
2019-04-26T20:09:31.809Z,99.99
2019-04-26T20:10:30.062Z,99.99
2019-04-26T20:11:31.582Z,99.99
2019-04-26T20:12:35.433Z,99.99
2019-04-26T20:13:31.671Z,99.99
2019-04-26T20:14:43.356Z,99.99
2019-04-26T20:15:31.665Z,99.99
2019-04-26T20:16:29.949Z,99.99
2019-04-26T20:17:29.929Z,99.99
2019-04-26T20:18:34.437Z,99.99
2019-04-26T20:19:35.145Z,99.99
2019-04-26T20:20:34.553Z,99.99
2019-04-26T20:21:32.107Z,99.99
2019-04-26T20:22:30.575Z,99.99
2019-04-26T20:23:33.617Z,99.99
2019-04-26T20:24:29.813Z,99.99
2019-04-26T20:25:30.236Z,99.99
2019-04-26T20:26:31.433Z,99.99
2019-04-26T20:27:29.738Z,99.99
2019-04-26T20:28:33.640Z,99.99
2019-04-26T20:29:29.721Z,99.99
2019-04-26T20:30:29.685Z,99.99
2019-04-26T20:31:29.661Z,99.99
2019-04-26T20:32:29.643Z,99.99
2019-04-26T20:33:31.199Z,99.99
2019-04-26T20:34:29.609Z,99.99
2019-04-26T20:35:29.605Z,99.99
2019-04-26T20:36:29.567Z,99.99
2019-04-26T20:37:29.559Z,99.99
2019-04-26T20:38:29.528Z,99.99
2019-04-26T20:39:29.510Z,99.99
2019-04-26T20:40:29.510Z,99.99
2019-04-26T20:41:29.621Z,99.99
2019-04-26T20:42:29.453Z,99.99
2019-04-26T20:43:29.436Z,99.99
2019-04-26T20:44:47.340Z,99.99
2019-04-26T20:45:39.753Z,99.99
2019-04-26T20:46:29.740Z,99.99
2019-04-26T20:47:29.354Z,99.99
2019-04-26T20:48:30.030Z,99.99
2019-04-26T20:49:29.322Z,99.99
2019-04-26T20:50:33.490Z,99.99